Time;durP1;ratioP1;P1;durP2;ratioP2;P2;SDS_P1;SDS_P2;PMS_P1;PMS_P2;Temp;Humidity;BMP_temperature;BMP_pressure;BME280_temperature;BME280_humidity;BME280_pressure;Samples;Min_cycle;Max_cycle;Signal;HPM_P1;HPM_P2
2021/03/21 00:01:48;;;;;;;5.82;4.10;;;6.10;56.70;;;;;;4915629;29;20058;-66
2021/03/21 00:04:15;;;;;;;7.18;3.30;;;6.00;58.00;;;;;;4916483;29;20028;-69
2021/03/21 00:06:41;;;;;;;19.52;4.20;;;6.00;58.10;;;;;;4899387;29;20426;-64
2021/03/21 00:09:08;;;;;;;5.03;3.20;;;6.10;57.80;;;;;;4916403;29;20060;-68
2021/03/21 00:11:34;;;;;;;11.27;3.60;;;6.00;57.50;;;;;;4907730;29;20037;-69
2021/03/21 00:14:00;;;;;;;4.70;3.00;;;6.00;58.00;;;;;;4902639;29;20039;-66
2021/03/21 00:16:26;;;;;;;11.40;4.35;;;6.10;57.50;;;;;;4880275;29;20068;-65
2021/03/21 00:18:52;;;;;;;8.60;3.40;;;6.00;57.50;;;;;;4899182;29;20027;-64
2021/03/21 00:21:18;;;;;;;6.80;3.97;;;6.10;58.60;;;;;;4908981;29;20099;-64
2021/03/21 00:23:44;;;;;;;11.80;3.40;;;6.10;57.20;;;;;;4918515;29;20067;-69
2021/03/21 00:26:10;;;;;;;6.53;3.72;;;6.10;57.80;;;;;;4918855;29;20032;-66
2021/03/21 00:28:38;;;;;;;8.38;3.10;;;6.10;58.00;;;;;;4919005;29;20192;-68
2021/03/21 00:31:06;;;;;;;6.00;3.58;;;6.10;58.50;;;;;;4920169;29;20044;-68
2021/03/21 00:33:34;;;;;;;8.65;3.70;;;6.00;58.10;;;;;;4920106;29;20032;-67
2021/03/21 00:36:00;;;;;;;5.47;3.88;;;6.10;58.70;;;;;;4902677;29;20034;-65
2021/03/21 00:38:29;;;;;;;9.55;3.67;;;6.00;59.00;;;;;;4919718;29;20051;-67
2021/03/21 00:40:55;;;;;;;8.23;3.75;;;6.10;59.80;;;;;;4902767;29;20121;-64
2021/03/21 00:43:22;;;;;;;8.07;3.60;;;6.10;58.70;;;;;;4902561;29;20490;-65
2021/03/21 00:45:47;;;;;;;11.40;4.47;;;6.10;58.90;;;;;;4919701;29;20064;-65
2021/03/21 00:48:24;;;;;;;5.03;3.00;;;6.20;60.20;;;;;;4902062;29;20079;-64
2021/03/21 00:50:51;;;;;;;11.38;3.30;;;6.00;59.00;;;;;;4918864;29;20032;-63
2021/03/21 00:53:18;;;;;;;7.20;3.50;;;5.90;60.10;;;;;;4919784;29;20024;-63
2021/03/21 00:55:44;;;;;;;5.05;3.45;;;6.00;60.30;;;;;;4918688;29;20383;-64
2021/03/21 00:58:10;;;;;;;6.35;3.42;;;6.00;59.50;;;;;;4920048;29;20095;-66
2021/03/21 01:00:50;;;;;;;4.13;3.35;;;5.90;59.80;;;;;;4919710;29;20036;-69
2021/03/21 01:03:17;;;;;;;5.53;3.17;;;5.70;61.10;;;;;;4920329;29;20044;-64
2021/03/21 01:05:46;;;;;;;6.10;3.80;;;5.80;60.70;;;;;;4919040;29;20029;-64
2021/03/21 01:08:21;;;;;;;4.78;3.28;;;5.80;61.00;;;;;;4918493;29;20389;-66
2021/03/21 01:10:49;;;;;;;5.53;3.38;;;5.80;61.40;;;;;;4917797;29;20120;-65
2021/03/21 01:13:16;;;;;;;8.90;4.63;;;5.80;61.90;;;;;;4901619;29;20032;-64
2021/03/21 01:15:42;;;;;;;5.43;3.53;;;5.70;61.90;;;;;;4917726;29;20039;-69
2021/03/21 01:18:07;;;;;;;6.05;3.17;;;5.70;62.80;;;;;;4918242;29;20032;-67
2021/03/21 01:20:33;;;;;;;5.78;3.75;;;5.80;63.60;;;;;;4918009;29;20031;-66
2021/03/21 01:22:59;;;;;;;6.75;3.47;;;5.80;63.60;;;;;;4917282;29;20061;-65
2021/03/21 01:25:26;;;;;;;7.93;4.13;;;5.70;63.60;;;;;;4918197;29;20054;-64
2021/03/21 01:27:54;;;;;;;7.05;3.38;;;5.70;64.00;;;;;;4917015;29;20108;-65
2021/03/21 01:30:21;;;;;;;8.68;3.00;;;5.60;63.90;;;;;;4918128;29;20460;-65
2021/03/21 01:32:47;;;;;;;5.13;3.65;;;5.60;64.40;;;;;;4916423;29;20048;-63
2021/03/21 01:35:13;;;;;;;5.95;3.53;;;5.70;65.10;;;;;;4918216;29;20386;-63
2021/03/21 01:37:39;;;;;;;3.92;2.97;;;5.70;64.80;;;;;;4917387;29;20498;-66
2021/03/21 01:40:09;;;;;;;6.55;3.45;;;5.70;64.70;;;;;;4917878;29;20051;-64
2021/03/21 01:42:40;;;;;;;5.53;3.25;;;5.80;64.80;;;;;;4900978;29;20028;-64
2021/03/21 01:45:37;;;;;;;7.35;3.78;;;5.90;64.30;;;;;;4900817;29;20039;-68
2021/03/21 01:48:34;;;;;;;4.47;2.60;;;5.70;64.30;;;;;;4917632;29;20036;-64
2021/03/21 01:51:05;;;;;;;8.40;3.00;;;5.60;65.30;;;;;;4916860;29;20031;-64
2021/03/21 01:53:33;;;;;;;4.75;3.22;;;5.70;64.80;;;;;;4900783;29;20028;-64
2021/03/21 01:55:59;;;;;;;4.25;3.67;;;5.70;65.80;;;;;;4916757;29;20410;-64
2021/03/21 01:58:28;;;;;;;6.78;3.53;;;5.60;65.70;;;;;;4917454;29;20043;-65
2021/03/21 02:01:13;;;;;;;9.73;3.60;;;5.60;65.90;;;;;;4916853;29;20044;-65
2021/03/21 02:03:38;;;;;;;7.40;3.15;;;5.80;67.00;;;;;;4900893;29;20032;-65
2021/03/21 02:06:29;;;;;;;4.63;2.90;;;5.90;67.00;;;;;;4917375;29;20028;-64
2021/03/21 02:09:22;;;;;;;5.50;3.10;;;5.90;66.10;;;;;;4900134;29;20078;-63
2021/03/21 02:12:27;;;;;;;7.53;4.00;;;5.80;67.80;;;;;;4917154;29;20039;-65
2021/03/21 02:15:18;;;;;;;5.28;3.53;;;5.90;68.10;;;;;;4899545;29;20039;-66
2021/03/21 02:18:14;;;;;;;9.13;3.30;;;6.00;68.50;;;;;;4899702;29;20386;-66
2021/03/21 02:21:12;;;;;;;10.77;3.42;;;6.10;67.90;;;;;;4917262;29;20075;-72
2021/03/21 02:24:17;;;;;;;5.85;3.35;;;6.10;68.00;;;;;;4900309;29;20096;-67
2021/03/21 02:26:54;;;;;;;6.18;3.70;;;6.20;68.00;;;;;;4879883;29;20063;-64
2021/03/21 02:29:46;;;;;;;5.97;3.47;;;6.30;68.40;;;;;;4899682;29;20550;-65
2021/03/21 02:32:34;;;;;;;6.28;3.58;;;6.30;69.20;;;;;;4900203;29;20084;-65
2021/03/21 02:35:21;;;;;;;6.13;4.47;;;6.40;67.10;;;;;;4899382;29;20028;-66
2021/03/21 02:37:58;;;;;;;7.80;3.75;;;6.40;68.20;;;;;;4899369;29;20032;-65
2021/03/21 02:40:35;;;;;;;6.50;3.35;;;6.30;68.00;;;;;;4916766;29;20115;-64
2021/03/21 02:43:20;;;;;;;5.82;3.58;;;6.20;68.60;;;;;;4899192;29;20092;-63
2021/03/21 02:45:51;;;;;;;8.02;4.43;;;6.00;70.10;;;;;;4898742;29;20124;-63
2021/03/21 02:48:26;;;;;;;6.82;3.88;;;6.00;70.50;;;;;;4900749;29;20033;-64
2021/03/21 02:51:05;;;;;;;10.27;3.33;;;6.00;71.20;;;;;;4899558;29;20039;-69
2021/03/21 02:53:40;;;;;;;7.18;3.85;;;6.00;72.00;;;;;;4900070;29;20032;-64
2021/03/21 02:56:10;;;;;;;10.82;3.40;;;6.20;70.90;;;;;;4899313;29;20067;-64
2021/03/21 02:59:08;;;;;;;6.05;3.47;;;6.20;72.10;;;;;;4916306;29;20255;-64
2021/03/21 03:01:42;;;;;;;5.82;3.38;;;6.20;72.10;;;;;;4908709;29;20052;-64
2021/03/21 03:04:12;;;;;;;4.70;3.33;;;6.20;72.20;;;;;;4898948;29;20028;-65
2021/03/21 03:06:49;;;;;;;5.55;3.92;;;6.30;71.90;;;;;;4899820;29;20039;-64
2021/03/21 03:09:32;;;;;;;7.38;4.18;;;6.10;73.10;;;;;;4899799;29;20064;-65
2021/03/21 03:12:09;;;;;;;8.27;4.68;;;6.10;73.60;;;;;;4916050;29;20032;-65
2021/03/21 03:14:39;;;;;;;6.13;3.95;;;6.10;75.80;;;;;;4899538;29;20035;-64
2021/03/21 03:17:21;;;;;;;5.35;4.10;;;6.10;75.10;;;;;;4916203;29;20028;-63
2021/03/21 03:19:59;;;;;;;7.32;3.80;;;6.10;76.50;;;;;;4898710;29;20024;-64
2021/03/21 03:23:15;;;;;;;8.75;4.30;;;6.00;76.20;;;;;;4916194;29;20028;-63
2021/03/21 03:26:09;;;;;;;5.95;4.03;;;6.10;77.00;;;;;;4894973;29;20074;-64
2021/03/21 03:28:45;;;;;;;6.13;4.00;;;6.10;77.50;;;;;;4899786;29;20079;-65
2021/03/21 03:31:28;;;;;;;7.88;3.70;;;6.00;79.50;;;;;;4918580;29;20446;-63
2021/03/21 03:33:54;;;;;;;6.95;4.13;;;6.00;79.60;;;;;;4917252;29;20482;-65
2021/03/21 03:36:20;;;;;;;6.40;4.35;;;6.00;79.90;;;;;;4917589;29;20035;-65
2021/03/21 03:38:48;;;;;;;7.28;4.50;;;6.10;79.90;;;;;;4916472;29;20036;-72
2021/03/21 03:41:35;;;;;;;8.73;4.90;;;6.20;79.90;;;;;;4917229;29;20096;-71
2021/03/21 03:44:38;;;;;;;8.07;5.85;;;6.10;80.90;;;;;;4916606;29;20036;-66
2021/03/21 03:47:28;;;;;;;8.77;4.68;;;6.20;81.20;;;;;;4916429;29;20479;-64
2021/03/21 03:50:01;;;;;;;9.88;5.07;;;6.20;81.80;;;;;;4916621;29;20036;-67
2021/03/21 03:52:44;;;;;;;10.27;5.43;;;6.20;81.70;;;;;;4917487;29;20074;-64
2021/03/21 03:55:22;;;;;;;6.18;4.72;;;6.30;82.60;;;;;;4917245;29;20034;-65
2021/03/21 03:58:06;;;;;;;9.25;6.22;;;6.30;81.90;;;;;;4920220;29;20062;-65
2021/03/21 04:00:37;;;;;;;11.25;5.65;;;6.30;83.50;;;;;;4921130;29;20119;-64
2021/03/21 04:03:09;;;;;;;;;;;6.40;83.40;;;;;;4904077;29;20032;-63
2021/03/21 04:05:49;;;;;;;6.55;5.38;;;6.40;83.50;;;;;;4920755;29;19907;-73
2021/03/21 04:08:31;;;;;;;10.68;5.50;;;6.50;84.50;;;;;;4920216;29;20040;-68
2021/03/21 04:11:05;;;;;;;9.82;5.85;;;6.50;84.00;;;;;;4919379;29;20107;-66
2021/03/21 04:13:45;;;;;;;9.88;6.35;;;6.50;85.40;;;;;;4903924;29;20035;-65
2021/03/21 04:16:19;;;;;;;10.10;5.70;;;6.50;86.00;;;;;;4919550;29;20031;-67
2021/03/21 04:18:48;;;;;;;10.23;5.90;;;6.40;86.10;;;;;;4919970;29;20032;-65
2021/03/21 04:21:34;;;;;;;9.18;6.07;;;6.40;88.10;;;;;;4902978;29;20088;-65
2021/03/21 04:24:08;;;;;;;13.82;7.22;;;6.40;88.70;;;;;;4901602;29;20084;-64
2021/03/21 04:26:44;;;;;;;10.27;7.20;;;6.50;89.00;;;;;;4902480;29;20040;-66
2021/03/21 04:29:20;;;;;;;11.32;7.20;;;6.50;89.90;;;;;;4918429;29;20131;-65
2021/03/21 04:31:49;;;;;;;9.88;6.55;;;6.40;89.90;;;;;;4919414;29;20040;-63
2021/03/21 04:34:15;;;;;;;12.25;7.15;;;6.40;90.10;;;;;;4918999;29;20024;-65
2021/03/21 04:36:45;;;;;;;14.80;8.50;;;6.40;91.20;;;;;;4919003;29;20035;-64
2021/03/21 04:39:17;;;;;;;16.15;8.10;;;6.40;91.90;;;;;;4918615;29;20482;-64
2021/03/21 04:41:46;;;;;;;15.82;8.48;;;6.40;92.90;;;;;;4902179;29;20126;-67
2021/03/21 04:44:26;;;;;;;16.63;8.80;;;6.40;94.00;;;;;;4901818;29;20024;-66
2021/03/21 04:46:56;;;;;;;15.80;9.65;;;6.40;95.00;;;;;;4901984;29;20036;-65
2021/03/21 04:49:23;;;;;;;14.60;10.20;;;6.40;96.20;;;;;;4901850;29;20036;-64
2021/03/21 04:52:00;;;;;;;14.23;9.52;;;6.40;97.00;;;;;;4901755;29;20379;-66
2021/03/21 04:54:29;;;;;;;19.35;10.80;;;6.50;98.40;;;;;;4902090;29;20044;-65
2021/03/21 04:57:16;;;;;;;15.82;10.25;;;6.40;99.20;;;;;;4917791;29;20394;-64
2021/03/21 04:59:44;;;;;;;18.10;10.80;;;6.30;99.90;;;;;;4918767;29;20391;-65
2021/03/21 05:02:16;;;;;;;18.52;12.02;;;6.40;99.90;;;;;;4901112;29;20211;-70
2021/03/21 05:04:47;;;;;;;;;;;6.30;99.90;;;;;;4919299;29;20087;-67
2021/03/21 05:07:28;;;;;;;18.10;11.57;;;6.40;99.90;;;;;;4917794;29;20372;-67
2021/03/21 05:10:19;;;;;;;19.20;10.48;;;6.30;99.90;;;;;;4917899;29;20043;-65
2021/03/21 05:12:50;;;;;;;17.52;11.25;;;6.30;99.90;;;;;;4913692;29;20385;-65
2021/03/21 05:15:34;;;;;;;18.85;11.32;;;6.30;99.90;;;;;;4918231;29;20127;-63
2021/03/21 05:18:31;;;;;;;15.27;9.25;;;6.40;99.90;;;;;;4901019;29;20044;-65
2021/03/21 05:21:06;;;;;;;15.23;10.43;;;6.40;99.90;;;;;;4917598;29;20031;-66
2021/03/21 05:23:55;;;;;;;15.95;9.98;;;6.30;99.90;;;;;;4901481;29;20103;-64
2021/03/21 05:26:36;;;;;;;16.55;10.25;;;6.40;99.90;;;;;;4918404;29;20032;-67
2021/03/21 05:29:33;;;;;;;15.70;10.87;;;6.30;99.90;;;;;;4917063;29;20100;-65
2021/03/21 05:31:59;;;;;;;16.85;10.70;;;6.30;99.90;;;;;;4900512;29;20394;-64
2021/03/21 05:34:25;;;;;;;11.38;6.97;;;6.10;99.90;;;;;;4918268;29;20029;-65
2021/03/21 05:37:27;;;;;;;13.75;8.80;;;6.20;99.90;;;;;;4917798;29;20044;-64
2021/03/21 05:40:08;;;;;;;12.82;7.97;;;6.00;99.90;;;;;;4900972;29;20032;-69
2021/03/21 05:43:19;;;;;;;12.95;7.72;;;6.00;99.90;;;;;;4902949;29;20171;-66
2021/03/21 05:45:53;;;;;;;12.55;9.38;;;5.90;99.90;;;;;;4899269;29;20043;-64
2021/03/21 05:48:40;;;;;;;16.77;11.40;;;6.00;99.90;;;;;;4917670;29;20075;-66
2021/03/21 05:51:18;;;;;;;18.05;11.90;;;6.10;99.90;;;;;;4917185;29;20028;-64
2021/03/21 05:54:48;;;;;;;19.65;13.38;;;6.10;99.90;;;;;;4901080;29;20387;-65
2021/03/21 05:57:40;;;;;;;19.27;13.30;;;6.10;99.90;;;;;;4895485;29;20044;-65
2021/03/21 06:00:24;;;;;;;21.52;13.10;;;6.10;99.90;;;;;;4917415;29;20478;-65
2021/03/21 06:03:08;;;;;;;23.80;14.68;;;6.10;99.90;;;;;;4900877;29;20032;-66
2021/03/21 06:05:49;;;;;;;24.58;14.32;;;6.20;99.90;;;;;;4900735;29;20040;-64
2021/03/21 06:08:36;;;;;;;26.17;15.32;;;6.20;99.90;;;;;;4917039;29;20064;-65
2021/03/21 06:11:40;;;;;;;26.27;16.15;;;6.20;99.90;;;;;;4916988;29;20032;-67
2021/03/21 06:14:46;;;;;;;23.88;16.17;;;6.20;99.90;;;;;;4900073;29;20024;-67
2021/03/21 06:17:31;;;;;;;24.77;17.58;;;6.20;99.90;;;;;;4916463;29;20020;-64
2021/03/21 06:20:03;;;;;;;25.70;17.08;;;6.10;99.90;;;;;;4899160;29;20032;-65
2021/03/21 06:22:50;;;;;;;26.88;18.40;;;6.20;99.90;;;;;;4917127;29;20098;-65
2021/03/21 06:25:47;;;;;;;24.83;16.52;;;6.30;99.90;;;;;;4916527;29;20040;-64
2021/03/21 06:28:48;;;;;;;27.05;17.15;;;6.40;99.90;;;;;;4916225;29;20087;-64
2021/03/21 06:31:41;;;;;;;23.92;16.50;;;6.40;99.90;;;;;;4916903;29;20119;-66
2021/03/21 06:34:24;;;;;;;25.48;17.10;;;6.30;99.90;;;;;;4916217;29;20087;-64
2021/03/21 06:37:06;;;;;;;24.30;15.95;;;6.30;99.90;;;;;;4900085;29;20035;-65
2021/03/21 06:40:06;;;;;;;31.92;17.25;;;6.30;99.90;;;;;;4917245;29;20088;-69
2021/03/21 06:43:03;;;;;;;25.05;16.95;;;6.30;99.90;;;;;;4899730;29;20043;-64
2021/03/21 06:45:57;;;;;;;23.55;16.35;;;6.30;99.90;;;;;;4916768;29;20490;-66
2021/03/21 06:48:32;;;;;;;23.40;15.55;;;6.40;99.90;;;;;;4900682;29;20119;-64
2021/03/21 06:51:27;;;;;;;25.98;15.70;;;6.50;99.90;;;;;;4916015;29;20493;-65
2021/03/21 06:54:32;;;;;;;23.58;15.02;;;6.40;99.90;;;;;;4916547;29;20039;-66
2021/03/21 06:57:13;;;;;;;23.15;15.85;;;6.40;99.90;;;;;;4898522;29;20036;-66
2021/03/21 07:00:22;;;;;;;23.70;15.27;;;6.50;99.90;;;;;;4899989;29;20107;-64
2021/03/21 07:03:05;;;;;;;18.83;13.00;;;6.50;99.90;;;;;;4916466;29;20043;-67
2021/03/21 07:05:46;;;;;;;22.75;14.15;;;6.40;99.90;;;;;;4916642;29;20028;-66
2021/03/21 07:08:26;;;;;;;20.00;13.73;;;6.50;99.90;;;;;;4915985;29;20058;-65
2021/03/21 07:11:10;;;;;;;20.58;13.95;;;6.50;99.90;;;;;;4916472;29;20051;-65
2021/03/21 07:13:45;;;;;;;21.08;13.23;;;6.40;99.90;;;;;;4899734;29;20028;-65
2021/03/21 07:16:32;;;;;;;20.20;13.05;;;6.40;99.90;;;;;;4898837;29;20470;-65
2021/03/21 07:19:14;;;;;;;24.38;14.98;;;6.40;99.90;;;;;;4916419;29;20035;-65
2021/03/21 07:21:49;;;;;;;16.75;12.38;;;6.60;99.90;;;;;;4916197;29;20480;-65
2021/03/21 07:24:17;;;;;;;17.08;11.80;;;6.60;99.90;;;;;;4915843;29;20032;-66
2021/03/21 07:27:11;;;;;;;16.30;12.32;;;6.80;99.90;;;;;;4916373;29;20028;-65
2021/03/21 07:29:50;;;;;;;15.73;10.68;;;6.60;99.90;;;;;;4915733;29;20071;-65
2021/03/21 07:32:37;;;;;;;14.38;9.77;;;6.60;99.90;;;;;;4919684;29;20032;-65
2021/03/21 07:35:09;;;;;;;15.90;11.05;;;6.60;99.90;;;;;;4902469;29;20061;-65
2021/03/21 07:37:56;;;;;;;18.98;11.48;;;6.80;99.90;;;;;;4902789;29;20034;-66
2021/03/21 07:40:44;;;;;;;16.42;10.65;;;6.60;99.90;;;;;;4902590;29;20036;-65
2021/03/21 07:43:10;;;;;;;14.15;10.20;;;6.70;99.90;;;;;;4902814;29;20062;-66
2021/03/21 07:45:50;;;;;;;15.45;10.95;;;6.60;99.90;;;;;;4902998;29;20056;-66
2021/03/21 07:48:37;;;;;;;14.05;10.07;;;6.70;99.90;;;;;;4902367;29;20040;-66
2021/03/21 07:51:20;;;;;;;16.08;10.60;;;6.80;99.90;;;;;;4919308;29;20112;-67
2021/03/21 07:53:56;;;;;;;15.10;10.38;;;6.90;99.90;;;;;;4920018;29;20040;-64
2021/03/21 07:57:20;;;;;;;16.58;10.65;;;6.90;99.90;;;;;;4919487;29;20028;-66
2021/03/21 07:59:47;;;;;;;16.52;9.93;;;6.80;99.90;;;;;;4894285;29;20060;-64
2021/03/21 08:02:20;;;;;;;12.48;8.70;;;7.00;99.90;;;;;;4919135;29;20169;-65
2021/03/21 08:04:48;;;;;;;14.88;8.90;;;7.00;99.90;;;;;;4919999;29;20032;-66
2021/03/21 08:07:34;;;;;;;13.60;8.63;;;6.90;99.90;;;;;;4902480;29;20028;-64
2021/03/21 08:10:01;;;;;;;14.55;9.38;;;7.00;99.90;;;;;;4902744;29;20072;-64
2021/03/21 08:12:39;;;;;;;10.40;7.90;;;7.10;99.90;;;;;;4919298;29;20124;-64
2021/03/21 08:15:21;;;;;;;12.13;8.18;;;7.30;99.90;;;;;;4919101;29;20030;-66
2021/03/21 08:18:00;;;;;;;9.45;7.32;;;7.30;99.90;;;;;;4920068;29;20036;-66
2021/03/21 08:20:33;;;;;;;10.15;6.90;;;7.40;99.90;;;;;;4919165;29;20028;-64
2021/03/21 08:23:19;;;;;;;8.18;6.72;;;7.40;99.90;;;;;;4903277;29;20047;-66
2021/03/21 08:25:45;;;;;;;9.27;6.75;;;7.50;99.90;;;;;;4920079;29;20032;-65
2021/03/21 08:28:14;;;;;;;9.30;6.00;;;7.70;99.90;;;;;;4901704;29;20051;-65
2021/03/21 08:30:56;;;;;;;6.85;5.43;;;7.60;99.90;;;;;;4919479;29;20098;-66
2021/03/21 08:33:32;;;;;;;6.45;4.32;;;7.60;99.90;;;;;;4901637;29;20032;-66
2021/03/21 08:36:20;;;;;;;4.85;4.13;;;7.60;99.90;;;;;;4902449;29;20028;-66
2021/03/21 08:38:57;;;;;;;5.57;4.18;;;7.60;99.90;;;;;;4918942;29;20482;-64
2021/03/21 08:41:25;;;;;;;5.60;4.68;;;7.70;99.90;;;;;;4919008;29;20216;-65
2021/03/21 08:44:04;;;;;;;5.03;4.45;;;7.90;99.90;;;;;;4918266;29;20020;-64
2021/03/21 08:46:31;;;;;;;6.63;5.15;;;8.30;99.90;;;;;;4918895;29;20028;-64
2021/03/21 08:49:05;;;;;;;5.43;4.45;;;8.50;99.90;;;;;;4901888;29;20044;-66
2021/03/21 08:51:39;;;;;;;5.53;3.78;;;8.70;99.90;;;;;;4901798;29;20028;-66
2021/03/21 08:54:08;;;;;;;6.22;4.68;;;8.90;99.90;;;;;;4918748;29;20390;-65
2021/03/21 08:56:38;;;;;;;4.43;3.42;;;9.00;99.90;;;;;;4918718;29;20133;-66
2021/03/21 08:59:19;;;;;;;4.70;3.17;;;9.10;99.90;;;;;;4917852;29;20497;-69
2021/03/21 09:01:59;;;;;;;4.20;3.38;;;8.70;99.90;;;;;;4918814;29;20068;-67
2021/03/21 09:04:26;;;;;;;3.17;2.67;;;8.50;99.90;;;;;;4902241;29;20043;-65
2021/03/21 09:06:52;;;;;;;3.50;2.58;;;8.50;99.90;;;;;;4920361;29;20155;-66
2021/03/21 09:09:21;;;;;;;4.55;2.50;;;8.50;99.90;;;;;;4902711;29;20052;-64
2021/03/21 09:11:57;;;;;;;3.08;2.17;;;8.40;99.90;;;;;;4919388;29;20394;-66
2021/03/21 09:14:29;;;;;;;2.05;1.70;;;8.50;99.90;;;;;;4901212;29;20032;-67
2021/03/21 09:17:02;;;;;;;2.60;2.10;;;8.40;99.90;;;;;;4918977;29;20130;-66
2021/03/21 09:19:33;;;;;;;2.63;1.95;;;8.30;99.90;;;;;;4900909;29;20482;-67
2021/03/21 09:22:01;;;;;;;2.30;1.80;;;8.30;99.90;;;;;;4919123;29;20414;-66
2021/03/21 09:24:30;;;;;;;2.60;1.80;;;8.20;99.90;;;;;;4900908;29;20036;-66
2021/03/21 09:27:17;;;;;;;2.42;1.83;;;8.10;99.90;;;;;;4901343;29;20039;-64
2021/03/21 09:29:45;;;;;;;3.25;1.80;;;8.20;99.90;;;;;;4901225;29;20140;-65
2021/03/21 09:32:28;;;;;;;3.08;1.88;;;8.30;99.90;;;;;;4918689;29;20497;-69
2021/03/21 09:35:21;;;;;;;2.72;1.90;;;8.30;99.90;;;;;;4919322;29;20071;-66
2021/03/21 09:37:48;;;;;;;2.80;1.92;;;8.30;99.90;;;;;;4902954;29;20032;-67
2021/03/21 09:40:41;;;;;;;2.45;1.77;;;8.40;99.90;;;;;;4902384;29;20097;-66
2021/03/21 09:43:14;;;;;;;2.95;1.70;;;8.50;99.90;;;;;;4922145;29;20028;-73
2021/03/21 09:45:42;;;;;;;1.92;1.70;;;8.50;99.90;;;;;;4919412;29;20091;-65
2021/03/21 09:48:32;;;;;;;2.65;1.45;;;8.50;99.90;;;;;;4918445;29;20109;-69
2021/03/21 09:51:05;;;;;;;1.77;1.55;;;8.60;99.90;;;;;;4902535;29;20028;-72
2021/03/21 09:53:50;;;;;;;1.92;1.75;;;8.50;99.90;;;;;;4900767;29;20039;-70
2021/03/21 09:56:40;;;;;;;3.70;1.75;;;8.50;99.90;;;;;;4872697;29;20104;-66
2021/03/21 09:59:28;;;;;;;8.63;1.75;;;8.50;99.90;;;;;;4880891;29;20068;-68
2021/03/21 10:02:08;;;;;;;2.53;1.92;;;8.60;99.90;;;;;;4882432;29;20033;-66
2021/03/21 10:04:52;;;;;;;2.38;2.08;;;8.90;99.90;;;;;;4875289;29;20035;-66
2021/03/21 10:07:26;;;;;;;2.42;1.83;;;9.20;99.90;;;;;;4879640;29;20025;-66
2021/03/21 10:09:54;;;;;;;2.50;1.83;;;9.40;99.90;;;;;;4880098;29;20040;-66
2021/03/21 10:12:21;;;;;;;4.03;1.90;;;9.60;99.90;;;;;;4879394;29;20474;-66
2021/03/21 10:15:04;;;;;;;3.55;1.90;;;10.00;99.90;;;;;;5110415;27;20367;-65
2021/03/21 10:17:30;;;;;;;1.77;1.50;;;10.20;99.90;;;;;;5086092;28;20036;-66
2021/03/21 10:19:57;;;;;;;2.75;1.20;;;10.20;99.90;;;;;;5060550;28;20032;-67
2021/03/21 10:22:28;;;;;;;1.40;1.02;;;10.30;99.90;;;;;;5059067;28;20062;-67
2021/03/21 10:24:59;;;;;;;;;;;10.20;99.90;;;;;;5057176;28;20039;-65
2021/03/21 10:27:48;;;;;;;2.67;1.40;;;10.10;99.90;;;;;;5061502;28;19915;-66
2021/03/21 10:30:25;;;;;;;1.52;0.88;;;10.10;99.90;;;;;;5061642;28;20420;-68
2021/03/21 10:33:00;;;;;;;1.75;1.42;;;9.90;99.90;;;;;;5061137;28;20032;-64
2021/03/21 10:35:28;;;;;;;2.35;2.05;;;9.80;99.90;;;;;;5070795;28;20039;-64
2021/03/21 10:38:28;;;;;;;2.85;1.73;;;9.90;99.90;;;;;;5059671;28;20027;-64
2021/03/21 10:40:53;;;;;;;2.88;1.58;;;9.90;99.90;;;;;;5064611;28;20040;-64
2021/03/21 10:43:19;;;;;;;1.50;1.30;;;10.30;99.90;;;;;;5079499;28;20035;-66
2021/03/21 10:45:48;;;;;;;2.75;0.95;;;10.40;99.90;;;;;;5052997;28;20076;-67
2021/03/21 10:48:19;;;;;;;0.82;0.73;;;10.70;99.30;;;;;;5071552;28;20025;-70
2021/03/21 10:51:02;;;;;;;2.72;1.10;;;10.80;98.00;;;;;;5077624;28;20525;-68
2021/03/21 10:53:38;;;;;;;1.13;0.90;;;10.60;97.50;;;;;;5063768;28;20028;-65
2021/03/21 10:56:27;;;;;;;1.85;1.08;;;10.50;97.90;;;;;;5076492;28;20104;-68
2021/03/21 10:59:25;;;;;;;2.47;0.93;;;10.50;97.30;;;;;;5077512;28;20033;-67
2021/03/21 11:02:24;;;;;;;3.40;0.88;;;10.40;97.10;;;;;;5071528;28;20111;-65
2021/03/21 11:05:03;;;;;;;2.83;0.65;;;10.30;97.10;;;;;;5089601;28;20036;-64
2021/03/21 11:07:29;;;;;;;0.88;0.57;;;10.20;97.30;;;;;;5088642;28;20027;-64
2021/03/21 11:09:57;;;;;;;0.90;0.70;;;10.30;97.30;;;;;;5071453;28;20021;-65
2021/03/21 11:12:32;;;;;;;1.50;0.50;;;10.70;97.60;;;;;;5070494;28;20024;-66
2021/03/21 11:15:15;;;;;;;1.45;0.80;;;10.80;96.70;;;;;;5070294;28;20056;-67
2021/03/21 11:17:42;;;;;;;1.88;0.68;;;10.60;96.30;;;;;;5087646;28;20040;-66
2021/03/21 11:20:33;;;;;;;0.70;0.52;;;10.40;96.20;;;;;;5087873;28;20466;-65
2021/03/21 11:23:07;;;;;;;2.63;0.85;;;10.40;96.50;;;;;;5089231;28;20028;-66
2021/03/21 11:25:39;;;;;;;1.05;0.40;;;10.60;96.20;;;;;;5078500;28;20044;-69
2021/03/21 11:28:06;;;;;;;0.77;0.60;;;10.70;96.10;;;;;;5075167;28;20020;-67
2021/03/21 11:30:33;;;;;;;0.80;0.55;;;10.70;95.70;;;;;;5073438;28;20021;-70
2021/03/21 11:33:27;;;;;;;1.13;0.63;;;10.60;95.50;;;;;;5075837;28;20051;-66
2021/03/21 11:36:10;;;;;;;1.77;0.68;;;10.70;95.00;;;;;;5074325;28;20033;-66
2021/03/21 11:38:39;;;;;;;0.70;0.50;;;11.10;94.20;;;;;;5073505;28;20020;-65
2021/03/21 11:41:16;;;;;;;1.02;0.60;;;10.90;94.10;;;;;;5074973;28;20111;-66
2021/03/21 11:43:42;;;;;;;2.50;0.68;;;11.00;94.00;;;;;;5073311;28;20033;-66
2021/03/21 11:46:24;;;;;;;1.05;0.80;;;11.00;94.30;;;;;;5074797;28;20028;-64
2021/03/21 11:48:51;;;;;;;0.85;0.75;;;11.00;93.70;;;;;;5075169;28;20023;-65
2021/03/21 11:51:18;;;;;;;2.08;0.77;;;10.90;94.00;;;;;;5074589;28;20119;-72
2021/03/21 11:53:47;;;;;;;1.75;0.93;;;11.20;92.70;;;;;;5074663;28;20064;-66
2021/03/21 11:56:34;;;;;;;1.77;0.90;;;11.50;92.50;;;;;;5073472;28;20075;-65
2021/03/21 11:59:09;;;;;;;1.40;1.05;;;12.20;91.70;;;;;;5074497;28;20466;-66
2021/03/21 12:01:41;;;;;;;1.55;0.90;;;12.70;90.60;;;;;;5055757;28;20032;-66
2021/03/21 12:04:11;;;;;;;2.65;1.27;;;12.80;88.90;;;;;;5071995;28;20033;-67
2021/03/21 12:06:47;;;;;;;2.55;0.85;;;12.80;84.60;;;;;;5071871;28;20071;-69
2021/03/21 12:09:38;;;;;;;0.95;0.82;;;13.00;83.20;;;;;;5072382;28;20094;-67
2021/03/21 12:12:24;;;;;;;3.22;0.50;;;13.20;81.30;;;;;;5071885;28;20021;-68
2021/03/21 12:14:51;;;;;;;2.90;0.93;;;13.50;79.70;;;;;;5071115;28;20057;-65
2021/03/21 12:17:35;;;;;;;2.13;0.90;;;13.30;79.70;;;;;;5053645;28;20104;-71
2021/03/21 12:20:31;;;;;;;2.55;0.90;;;13.50;79.20;;;;;;5054881;28;20040;-65
2021/03/21 12:22:58;;;;;;;5.07;0.90;;;13.30;80.30;;;;;;5071795;28;20037;-67
2021/03/21 12:25:35;;;;;;;0.80;0.77;;;12.80;82.80;;;;;;5054191;28;20032;-67
2021/03/21 12:28:22;;;;;;;3.20;0.88;;;12.80;83.50;;;;;;5072030;28;20021;-67
2021/03/21 12:30:53;;;;;;;3.70;1.05;;;12.60;83.40;;;;;;5073515;28;20036;-67
2021/03/21 12:33:31;;;;;;;2.05;0.95;;;12.40;85.10;;;;;;5073058;28;20106;-73
2021/03/21 12:36:13;;;;;;;2.72;2.17;;;12.80;84.80;;;;;;5073804;28;20037;-68
2021/03/21 12:38:44;;;;;;;1.48;1.13;;;12.70;83.50;;;;;;5074031;28;20445;-67
2021/03/21 12:41:47;;;;;;;1.50;1.05;;;12.80;85.00;;;;;;5073112;28;20051;-66
2021/03/21 12:44:28;;;;;;;1.65;1.30;;;13.00;82.90;;;;;;5072647;28;20124;-67
2021/03/21 12:47:04;;;;;;;4.40;1.30;;;13.10;82.90;;;;;;5073811;28;20031;-68
2021/03/21 12:49:42;;;;;;;2.50;0.82;;;13.40;81.60;;;;;;5071719;28;20056;-65
2021/03/21 12:52:12;;;;;;;4.32;1.00;;;13.90;94.50;;;;;;5073425;28;20145;-71
2021/03/21 12:54:40;;;;;;;3.38;0.82;;;15.10;93.50;;;;;;5070642;28;20490;-68
2021/03/21 12:57:11;;;;;;;4.55;1.05;;;16.50;94.10;;;;;;5070286;28;20044;-68
2021/03/21 12:59:37;;;;;;;2.63;0.90;;;17.10;89.90;;;;;;5071058;28;20034;-67
2021/03/21 13:02:03;;;;;;;4.00;0.88;;;17.30;75.80;;;;;;5071051;28;20055;-69
2021/03/21 13:04:29;;;;;;;2.25;0.90;;;17.20;70.60;;;;;;5069031;28;20029;-68
2021/03/21 13:06:54;;;;;;;3.75;0.73;;;17.60;71.00;;;;;;5069683;28;20036;-74
2021/03/21 13:09:21;;;;;;;4.63;0.82;;;17.40;60.60;;;;;;5069579;28;20033;-73
2021/03/21 13:11:47;;;;;;;5.70;1.23;;;16.20;59.80;;;;;;5074295;28;20060;-76
2021/03/21 13:14:12;;;;;;;3.05;1.02;;;15.40;59.50;;;;;;5062479;28;20083;-75
2021/03/21 13:16:38;;;;;;;4.45;0.93;;;14.40;61.80;;;;;;5037995;28;20120;-76
2021/03/21 13:19:05;;;;;;;4.63;1.00;;;14.40;63.00;;;;;;5036804;28;20128;-77
2021/03/21 13:21:30;;;;;;;5.07;1.00;;;14.60;60.70;;;;;;5053518;28;20033;-74
2021/03/21 13:23:56;;;;;;;6.07;0.93;;;14.40;61.60;;;;;;5034785;28;20033;-74
2021/03/21 13:26:22;;;;;;;4.60;0.98;;;14.40;61.20;;;;;;5032857;28;20115;-74
2021/03/21 13:28:48;;;;;;;4.47;0.93;;;14.60;62.60;;;;;;5050917;28;20029;-75
2021/03/21 13:31:14;;;;;;;3.13;0.77;;;14.40;61.40;;;;;;5051702;28;20025;-75
2021/03/21 13:33:40;;;;;;;3.25;1.10;;;14.40;74.30;;;;;;5034046;28;20816;-75
2021/03/21 13:36:07;;;;;;;1.77;0.70;;;14.60;62.70;;;;;;5037169;28;20112;-75
2021/03/21 13:38:35;;;;;;;2.78;0.75;;;14.40;64.10;;;;;;5053312;28;20079;-75
2021/03/21 13:41:02;;;;;;;4.32;0.90;;;14.50;63.30;;;;;;5036839;28;20028;-76
2021/03/21 13:43:29;;;;;;;3.03;0.80;;;14.50;62.20;;;;;;5036465;28;20148;-75